LOWW

Vienna International Airport

Vienna, Austria
TAF LOWW 251715Z 2518/2624 34007KT CAVOK TX16/2613Z TN02/2605Z BECMG 2521/2524 VRB02KT BECMG 2607/2609 15010KT TEMPO 2612/2616 15015KT
Issued Valid From Valid To
Sep-25 @ 17:15 UTC
(2 hours ago)
Sep-25 @ 18:00 UTC
(2 hours ago)
Sep-27 @ 00:00 UTC
(-1 days ago)
Sep-25 @ 18:00 to Sep-25 @ 21:00
TAF LOWW 251715Z 2518/2624 34007KT CAVOK TX16/2613Z TN02/2605Z
Wind Visibility Clouds
340° at 7 knots 10,000+ meters
  • No significant clouds
Becoming Sep-25 @ 21:00 to Sep-26 @ 07:00
BECMG 2521/2524 VRB02KT
Wind Visibility Clouds
Variable at 2 knots 10,000+ meters
  • No significant clouds
Becoming Sep-26 @ 07:00 to Sep-27 @ 00:00
BECMG 2607/2609 15010KT
Wind Visibility Clouds
150° at 10 knots 10,000+ meters
  • No significant clouds
Temporary Sep-26 @ 12:00 to Sep-26 @ 16:00
TEMPO 2612/2616 15015KT
Wind
150° at 15 knots
TAF LOWW 251715Z 2518/2624 34007KT CAVOK TX16/2613Z TN02/2605Z BECMG 2521/2524 VRB02KT BECMG 2607/2609 15010KT TEMPO 2612/2616 15015KT
Issued Sep-25 @ 17:15 UTC
(2 hours ago)
Valid From Sep-25 @ 18:00 UTC
(2 hours ago)
Valid To Sep-27 @ 00:00 UTC
(-1 days ago)
Sep-25 @ 18:00 - Sep-25 @ 21:00
Wind Visibility
340° at 7 knots 10,000+ meters
Clouds
  • No significant clouds
Becoming Sep-25 @ 21:00 - Sep-26 @ 07:00
Wind Visibility
Variable at 2 knots 10,000+ meters
Clouds
  • No significant clouds
Becoming Sep-26 @ 07:00 - Sep-27 @ 00:00
Wind Visibility
150° at 10 knots 10,000+ meters
Clouds
  • No significant clouds
Temporary Sep-26 @ 12:00 - Sep-26 @ 16:00
Wind
150° at 15 knots